createdAt,value
2018-03-02T00:01:31.820Z,29.90
2018-03-02T00:04:01.009Z,29.50
2018-03-02T00:08:58.844Z,29.10
2018-03-02T00:11:26.956Z,32.50
2018-03-02T00:13:54.911Z,30.10
2018-03-02T00:16:23.027Z,31.50
2018-03-02T00:21:20.296Z,30.00
2018-03-02T00:23:48.372Z,31.20
2018-03-02T00:28:44.913Z,30.20
2018-03-02T00:31:12.287Z,30.10
2018-03-02T00:33:40.629Z,29.70
2018-03-02T00:36:14.326Z,29.80
2018-03-02T00:38:43.354Z,29.30
2018-03-02T00:41:11.597Z,29.40
2018-03-02T00:43:40.313Z,29.40
2018-03-02T00:46:07.733Z,29.90
2018-03-02T00:48:35.630Z,32.30
2018-03-02T00:51:07.468Z,32.80
2018-03-02T00:53:35.913Z,31.10
2018-03-02T00:56:04.549Z,29.90
2018-03-02T00:58:31.919Z,30.00
2018-03-02T01:01:00.371Z,29.40
2018-03-02T01:03:30.787Z,31.30
2018-03-02T01:10:57.774Z,31.80
2018-03-02T01:15:53.423Z,34.40
2018-03-02T01:18:20.804Z,31.40
2018-03-02T01:20:50.332Z,30.10
2018-03-02T01:23:17.665Z,33.20
2018-03-02T01:25:46.711Z,31.40
2018-03-02T01:28:14.115Z,31.50
2018-03-02T01:30:42.300Z,31.90
2018-03-02T01:33:09.673Z,30.70
2018-03-02T01:35:37.749Z,31.30
2018-03-02T01:40:33.456Z,30.00
2018-03-02T01:43:00.903Z,29.40
2018-03-02T01:45:29.097Z,29.80
2018-03-02T01:47:56.717Z,32.50
2018-03-02T01:50:25.014Z,33.00
2018-03-02T01:52:54.125Z,31.40
2018-03-02T01:57:50.244Z,30.90
2018-03-02T02:00:17.987Z,30.80
2018-03-02T02:05:15.204Z,32.20
2018-03-02T02:07:43.368Z,32.10
2018-03-02T02:10:11.200Z,30.40
2018-03-02T02:12:40.108Z,32.10
2018-03-02T02:17:35.864Z,32.50
2018-03-02T02:20:03.200Z,30.40
2018-03-02T02:22:30.732Z,30.10
2018-03-02T02:24:58.510Z,32.00
2018-03-02T02:27:25.877Z,32.20
2018-03-02T02:29:53.284Z,31.40
2018-03-02T02:32:21.363Z,31.20
2018-03-02T02:34:48.777Z,29.50
2018-03-02T02:37:16.176Z,29.70
2018-03-02T02:39:44.345Z,31.60
2018-03-02T02:44:40.903Z,31.20
2018-03-02T02:49:37.179Z,30.40
2018-03-02T02:52:05.269Z,29.60
2018-03-02T02:57:01.293Z,30.90
2018-03-02T02:59:29.124Z,30.00
2018-03-02T03:01:56.560Z,29.80
2018-03-02T03:04:25.264Z,29.80
2018-03-02T03:06:52.774Z,30.10
2018-03-02T03:11:50.684Z,31.30
2018-03-02T03:14:18.244Z,30.30
2018-03-02T03:16:46.379Z,30.00
2018-03-02T03:19:13.753Z,29.80
2018-03-02T03:21:41.824Z,30.00
2018-03-02T03:24:11.051Z,30.00
2018-03-02T03:26:39.159Z,31.90
2018-03-02T03:29:07.675Z,30.50
2018-03-02T03:31:35.103Z,30.00
2018-03-02T03:34:03.564Z,30.60
2018-03-02T03:36:31.704Z,31.30
2018-03-02T03:38:59.751Z,30.00
2018-03-02T03:43:56.858Z,29.90
2018-03-02T03:46:24.455Z,29.90
2018-03-02T03:53:49.612Z,31.30
2018-03-02T03:56:16.985Z,32.60
2018-03-02T03:58:45.124Z,31.90
2018-03-02T04:03:42.532Z,30.90
2018-03-02T04:06:10.630Z,30.00
2018-03-02T04:08:37.972Z,30.20
2018-03-02T04:11:05.288Z,30.70
2018-03-02T04:16:01.956Z,30.60
2018-03-02T04:23:27.154Z,30.40
2018-03-02T04:25:55.039Z,30.10
2018-03-02T04:30:51.792Z,31.00
2018-03-02T04:33:19.934Z,32.00
2018-03-02T04:35:48.452Z,31.10
2018-03-02T04:38:15.861Z,31.10
2018-03-02T04:40:43.248Z,31.00
2018-03-02T04:43:12.547Z,33.10
2018-03-02T04:45:41.788Z,32.10
2018-03-02T04:48:09.643Z,31.50
2018-03-02T04:53:05.275Z,33.40
2018-03-02T04:55:34.999Z,31.60
2018-03-02T04:58:03.112Z,31.90
2018-03-02T05:00:30.504Z,32.50
2018-03-02T05:02:58.812Z,32.50
2018-03-02T05:05:27.488Z,32.10
2018-03-02T05:07:54.828Z,32.40
2018-03-02T05:10:23.691Z,32.60
2018-03-02T05:15:20.103Z,30.40
2018-03-02T05:17:47.478Z,31.10
2018-03-02T05:22:44.695Z,30.90
2018-03-02T05:25:12.367Z,31.30
2018-03-02T05:27:39.737Z,32.70
2018-03-02T05:30:07.827Z,33.40
2018-03-02T05:35:05.465Z,30.50
2018-03-02T05:37:33.652Z,31.00
2018-03-02T05:40:01.913Z,30.90
2018-03-02T05:42:30.259Z,31.40
2018-03-02T05:47:25.917Z,33.20
2018-03-02T05:49:53.267Z,31.50
2018-03-02T05:52:21.349Z,31.50
2018-03-02T05:57:17.390Z,31.20
2018-03-02T05:59:45.912Z,32.00
2018-03-02T06:02:13.402Z,32.00
2018-03-02T06:04:41.511Z,31.50
2018-03-02T06:07:09.576Z,31.60
2018-03-02T06:09:37.076Z,32.10
2018-03-02T06:14:33.501Z,32.00
2018-03-02T06:19:29.892Z,32.70
2018-03-02T06:24:25.647Z,32.10
2018-03-02T06:26:53.845Z,31.60
2018-03-02T06:29:21.235Z,31.50
2018-03-02T06:31:49.309Z,31.20
2018-03-02T06:36:45.096Z,31.80
2018-03-02T06:39:13.925Z,32.00
2018-03-02T06:41:44.616Z,31.70
2018-03-02T06:44:13.308Z,32.00
2018-03-02T06:49:09.687Z,31.50
2018-03-02T06:51:37.792Z,31.60
2018-03-02T06:56:34.995Z,31.30
2018-03-02T06:59:02.924Z,31.20
2018-03-02T07:03:59.316Z,32.60
2018-03-02T07:06:27.394Z,31.10
2018-03-02T07:08:55.002Z,30.40
2018-03-02T07:11:23.116Z,31.20
2018-03-02T07:13:50.437Z,31.20
2018-03-02T07:16:18.546Z,32.80
2018-03-02T07:18:45.875Z,31.40
2018-03-02T07:21:13.969Z,32.20
2018-03-02T07:23:41.316Z,30.90
2018-03-02T07:26:08.635Z,30.80
2018-03-02T07:33:33.285Z,31.10
2018-03-02T07:36:01.405Z,31.70
2018-03-02T07:38:28.795Z,30.70
2018-03-02T07:40:57.042Z,31.40
2018-03-02T07:43:24.803Z,31.60
2018-03-02T07:48:20.415Z,31.50
2018-03-02T07:50:48.652Z,30.80
2018-03-02T07:53:16.725Z,31.20
2018-03-02T07:58:12.403Z,30.80
2018-03-02T08:00:40.891Z,30.70
2018-03-02T08:05:36.553Z,30.40
2018-03-02T08:10:33.579Z,34.00
2018-03-02T08:13:01.123Z,32.50
2018-03-02T08:15:28.593Z,32.70
2018-03-02T08:17:55.952Z,34.10
2018-03-02T08:25:19.945Z,30.10
2018-03-02T08:27:47.362Z,29.20
2018-03-02T08:30:14.693Z,29.20
2018-03-02T08:37:38.820Z,32.70
2018-03-02T08:40:06.975Z,29.90
2018-03-02T08:47:31.574Z,29.90
2018-03-02T08:49:58.930Z,31.10
2018-03-02T08:52:26.651Z,34.30
2018-03-02T08:54:54.016Z,32.60
2018-03-02T08:57:22.104Z,34.30
2018-03-02T08:59:49.461Z,32.10
2018-03-02T09:04:45.874Z,32.90
2018-03-02T09:07:13.949Z,33.40
2018-03-02T09:09:42.292Z,29.30
2018-03-02T09:12:09.695Z,30.00
2018-03-02T09:19:34.278Z,29.40
2018-03-02T09:22:02.382Z,28.20
2018-03-02T09:24:30.554Z,28.00
2018-03-02T09:26:57.859Z,28.30
2018-03-02T09:29:25.240Z,28.30
2018-03-02T09:36:49.195Z,31.40
2018-03-02T09:39:16.589Z,31.70
2018-03-02T09:41:45.031Z,31.60
2018-03-02T09:44:12.681Z,30.40
2018-03-02T09:46:40.067Z,29.40
2018-03-02T09:54:03.964Z,26.70
2018-03-02T09:58:59.774Z,27.20
2018-03-02T10:01:27.868Z,28.20
2018-03-02T10:06:24.371Z,25.50
2018-03-02T10:08:51.728Z,26.50
2018-03-02T10:13:47.725Z,27.80
2018-03-02T10:16:15.096Z,26.80
2018-03-02T10:18:42.492Z,26.10
2018-03-02T10:21:09.884Z,25.60
2018-03-02T10:23:38.224Z,27.30
2018-03-02T10:26:05.603Z,26.00
2018-03-02T10:31:02.136Z,24.90
2018-03-02T10:33:30.364Z,23.40
2018-03-02T10:38:26.905Z,27.80
2018-03-02T10:40:54.440Z,24.40
2018-03-02T10:43:21.800Z,27.80
2018-03-02T10:48:17.431Z,27.50
2018-03-02T10:53:14.249Z,27.60
2018-03-02T10:55:42.360Z,23.40
2018-03-02T11:00:44.957Z,23.80
2018-03-02T11:08:41.950Z,22.20
2018-03-02T11:13:38.335Z,24.40
2018-03-02T11:16:06.110Z,24.10
2018-03-02T11:25:58.945Z,21.30
2018-03-02T11:28:27.096Z,20.90
2018-03-02T11:30:54.484Z,20.40
2018-03-02T11:36:08.428Z,21.10
2018-03-02T11:41:30.303Z,20.80
2018-03-02T11:44:06.902Z,22.50
2018-03-02T11:46:35.028Z,23.70
2018-03-02T11:51:40.624Z,23.20
2018-03-02T11:54:09.076Z,23.70
2018-03-02T11:56:36.547Z,25.80
2018-03-02T11:59:06.506Z,26.10
2018-03-02T12:01:36.762Z,26.70
2018-03-02T12:04:04.152Z,26.00
2018-03-02T12:06:39.425Z,25.60
2018-03-02T12:09:06.863Z,25.40
2018-03-02T12:11:34.272Z,26.50
2018-03-02T12:14:02.521Z,25.40
2018-03-02T12:16:29.969Z,24.90
2018-03-02T12:18:57.544Z,25.10
2018-03-02T12:21:24.922Z,24.50
2018-03-02T12:23:53.081Z,24.90
2018-03-02T12:26:23.384Z,27.30
2018-03-02T12:28:51.508Z,27.70
2018-03-02T12:31:19.620Z,28.70
2018-03-02T12:33:47.143Z,27.80
2018-03-02T12:36:15.260Z,26.40
2018-03-02T12:38:42.664Z,26.40
2018-03-02T12:41:10.801Z,28.40
2018-03-02T12:43:38.312Z,28.10
2018-03-02T12:46:05.659Z,29.00
2018-03-02T12:48:33.989Z,28.50
2018-03-02T12:51:01.590Z,28.60
2018-03-02T12:53:29.669Z,27.00
2018-03-02T12:55:57.137Z,27.20
2018-03-02T12:58:24.555Z,24.60
2018-03-02T13:00:52.715Z,24.90
2018-03-02T13:03:22.755Z,26.40
2018-03-02T13:05:50.982Z,26.90
2018-03-02T13:08:18.368Z,25.90
2018-03-02T13:10:46.691Z,27.50
2018-03-02T13:13:14.057Z,25.10
2018-03-02T13:15:45.241Z,25.80
2018-03-02T13:18:25.469Z,27.50
2018-03-02T13:20:52.765Z,25.80
2018-03-02T13:23:20.631Z,25.80
2018-03-02T13:25:54.729Z,26.30
2018-03-02T13:30:56.568Z,31.70
2018-03-02T13:33:37.144Z,31.10
2018-03-02T13:36:07.291Z,29.70
2018-03-02T13:38:35.496Z,27.20
2018-03-02T13:41:14.959Z,29.60
2018-03-02T13:43:42.488Z,28.10
2018-03-02T13:46:09.905Z,28.10
2018-03-02T13:48:50.563Z,28.70
2018-03-02T13:51:17.893Z,29.70
2018-03-02T13:53:45.386Z,27.80
2018-03-02T13:56:25.907Z,28.90
2018-03-02T13:58:53.198Z,28.60
2018-03-02T14:01:20.591Z,27.30
2018-03-02T14:04:01.779Z,32.30
2018-03-02T14:06:29.070Z,28.80
2018-03-02T14:08:56.425Z,30.70
2018-03-02T14:11:23.917Z,27.80
2018-03-02T14:13:52.410Z,28.80
2018-03-02T14:16:19.835Z,26.50
2018-03-02T14:18:47.332Z,29.40
2018-03-02T14:21:16.671Z,31.00
2018-03-02T14:23:44.137Z,31.20
2018-03-02T14:26:11.554Z,29.70
2018-03-02T14:28:38.953Z,28.60
2018-03-02T14:31:06.388Z,29.10
2018-03-02T14:33:34.483Z,30.70
2018-03-02T14:36:01.831Z,28.10
2018-03-02T14:40:58.294Z,28.60
2018-03-02T14:43:25.707Z,31.00
2018-03-02T14:45:53.186Z,30.60
2018-03-02T14:48:21.320Z,29.40
2018-03-02T14:50:49.411Z,28.50
2018-03-02T14:55:45.137Z,29.80
2018-03-02T14:58:13.281Z,28.40
2018-03-02T15:00:41.348Z,28.20
2018-03-02T15:03:09.455Z,27.70
2018-03-02T15:05:36.806Z,28.50
2018-03-02T15:08:04.916Z,30.40
2018-03-02T15:10:32.240Z,28.00
2018-03-02T15:12:59.656Z,27.90
2018-03-02T15:15:27.796Z,30.40
2018-03-02T15:17:55.195Z,27.90
2018-03-02T15:25:19.412Z,26.90
2018-03-02T15:27:47.509Z,27.00
2018-03-02T15:32:44.021Z,26.90
2018-03-02T15:35:12.200Z,28.00
2018-03-02T15:40:08.663Z,27.00
2018-03-02T15:42:36.061Z,27.90
2018-03-02T15:50:00.300Z,27.60
2018-03-02T15:54:56.905Z,28.20
2018-03-02T15:57:25.001Z,28.60
2018-03-02T16:04:49.288Z,28.80
2018-03-02T16:07:16.797Z,27.30
2018-03-02T16:09:44.239Z,28.90
2018-03-02T16:12:12.405Z,29.30
2018-03-02T16:14:39.816Z,29.20
2018-03-02T16:17:07.991Z,29.30
2018-03-02T16:19:35.377Z,30.00
2018-03-02T16:22:02.835Z,29.00
2018-03-02T16:24:31.004Z,30.00
2018-03-02T16:26:59.112Z,29.70
2018-03-02T16:29:27.385Z,29.50
2018-03-02T16:31:55.503Z,29.00
2018-03-02T16:39:20.477Z,28.50
2018-03-02T16:44:17.260Z,31.20
2018-03-02T16:46:45.347Z,33.20
2018-03-02T16:49:12.734Z,32.50
2018-03-02T16:51:40.168Z,31.20
2018-03-02T16:54:08.249Z,31.00
2018-03-02T16:56:35.641Z,30.70
2018-03-02T17:01:31.473Z,30.10
2018-03-02T17:06:27.087Z,32.20
2018-03-02T17:11:22.878Z,30.20
2018-03-02T17:13:50.284Z,33.40
2018-03-02T17:18:46.012Z,31.00
2018-03-02T17:23:41.692Z,34.80
2018-03-02T17:26:09.116Z,34.60
2018-03-02T17:28:37.455Z,34.10
2018-03-02T17:31:05.356Z,33.00
2018-03-02T17:36:01.060Z,33.10
2018-03-02T17:38:28.600Z,32.90
2018-03-02T17:40:55.992Z,37.40
2018-03-02T17:43:24.322Z,32.90
2018-03-02T17:50:48.595Z,34.80
2018-03-02T17:53:16.072Z,33.40
2018-03-02T18:00:41.027Z,32.60
2018-03-02T18:03:08.404Z,34.00
2018-03-02T18:05:36.893Z,33.40
2018-03-02T18:08:04.339Z,36.80
2018-03-02T18:10:31.684Z,34.20
2018-03-02T18:12:59.808Z,34.10
2018-03-02T18:15:27.960Z,32.90
2018-03-02T18:17:55.309Z,33.40
2018-03-02T18:20:23.464Z,35.20
2018-03-02T18:22:50.882Z,37.20
2018-03-02T18:27:46.585Z,32.30
2018-03-02T18:30:14.759Z,35.80
2018-03-02T18:35:10.561Z,32.30
2018-03-02T18:37:37.974Z,33.40
2018-03-02T18:40:06.076Z,34.00
2018-03-02T18:42:33.512Z,32.50
2018-03-02T18:47:29.993Z,38.20
2018-03-02T18:49:58.288Z,34.00
2018-03-02T18:52:25.694Z,33.50
2018-03-02T18:54:53.961Z,32.00
2018-03-02T18:57:22.366Z,33.00
2018-03-02T18:59:50.473Z,33.60
2018-03-02T19:04:46.184Z,33.80
2018-03-02T19:07:13.632Z,32.70
2018-03-02T19:09:41.068Z,32.30
2018-03-02T19:12:09.267Z,32.90
2018-03-02T19:14:36.672Z,33.60
2018-03-02T19:17:04.097Z,37.20
2018-03-02T19:19:31.512Z,38.40
2018-03-02T19:21:58.867Z,35.00
2018-03-02T19:24:26.964Z,33.80
2018-03-02T19:29:22.660Z,38.10
2018-03-02T19:34:18.475Z,33.50
2018-03-02T19:39:15.284Z,34.50
2018-03-02T19:44:11.596Z,37.10
2018-03-02T19:46:39.692Z,35.70
2018-03-02T19:49:07.112Z,35.80
2018-03-02T19:51:34.509Z,36.90
2018-03-02T19:58:59.413Z,40.40
2018-03-02T20:01:26.871Z,41.80
2018-03-02T20:03:55.248Z,42.60
2018-03-02T20:06:23.411Z,41.80
2018-03-02T20:11:19.136Z,41.90
2018-03-02T20:13:46.606Z,42.90
2018-03-02T20:18:42.268Z,44.50
2018-03-02T20:21:10.402Z,46.40
2018-03-02T20:26:06.886Z,43.10
2018-03-02T20:28:34.234Z,42.20
2018-03-02T20:31:01.648Z,45.20
2018-03-02T20:33:29.758Z,44.50
2018-03-02T20:38:31.850Z,46.70
2018-03-02T20:43:27.548Z,45.70
2018-03-02T20:45:55.639Z,45.30
2018-03-02T20:48:23.762Z,46.10
2018-03-02T20:50:52.118Z,46.20
2018-03-02T20:53:19.540Z,47.40
2018-03-02T20:55:46.948Z,46.60
2018-03-02T21:00:42.623Z,46.40
2018-03-02T21:03:10.741Z,47.80
2018-03-02T21:05:38.277Z,47.90
2018-03-02T21:10:34.142Z,46.50
2018-03-02T21:13:01.697Z,47.30
2018-03-02T21:15:29.044Z,47.20
2018-03-02T21:20:26.688Z,50.60
2018-03-02T21:22:55.040Z,50.40
2018-03-02T21:32:48.338Z,48.90
2018-03-02T21:37:44.684Z,47.10
2018-03-02T21:40:12.789Z,45.40
2018-03-02T21:42:40.209Z,47.70
2018-03-02T21:45:08.439Z,47.50
2018-03-02T21:47:35.816Z,48.50
2018-03-02T21:50:04.197Z,48.90
2018-03-02T21:52:31.611Z,45.30
2018-03-02T21:54:58.969Z,45.20
2018-03-02T21:57:26.503Z,44.10
2018-03-02T22:02:22.167Z,45.40
2018-03-02T22:09:46.286Z,46.20
2018-03-02T22:12:13.661Z,46.10
2018-03-02T22:14:41.741Z,46.30
2018-03-02T22:22:05.800Z,45.50
2018-03-02T22:24:33.911Z,46.40
2018-03-02T22:29:29.740Z,46.00
2018-03-02T22:31:57.112Z,46.00
2018-03-02T22:34:24.505Z,46.80
2018-03-02T22:36:51.916Z,47.50
2018-03-02T22:41:47.804Z,46.60
2018-03-02T22:44:15.193Z,46.00
2018-03-02T22:46:42.575Z,45.50
2018-03-02T22:49:10.051Z,45.70
2018-03-02T22:51:38.177Z,46.70
2018-03-02T22:56:34.036Z,47.40
2018-03-02T23:06:27.608Z,47.40
2018-03-02T23:11:23.297Z,47.00
2018-03-02T23:16:19.872Z,46.80
2018-03-02T23:21:15.663Z,47.00
2018-03-02T23:28:39.600Z,47.10
2018-03-02T23:31:07.737Z,47.00
2018-03-02T23:36:04.672Z,47.90
2018-03-02T23:38:32.808Z,49.90
2018-03-02T23:43:28.494Z,48.20
2018-03-02T23:48:24.344Z,49.20
2018-03-02T23:53:20.012Z,51.30
2018-03-02T23:55:47.386Z,51.30
2018-03-02T23:58:15.436Z,50.60
